Time;durP1;ratioP1;P1;durP2;ratioP2;P2;SDS_P1;SDS_P2;PMS_P1;PMS_P2;Temp;Humidity;BMP_temperature;BMP_pressure;BME280_temperature;BME280_humidity;BME280_pressure;Samples;Min_cycle;Max_cycle;Signal;HPM_P1;HPM_P2
2023/08/21 00:00:54;;;;;;;8.25;4.38;;;26.00;62.30;;;;;;5046255;28;20074;-64
2023/08/21 00:03:19;;;;;;;7.93;4.22;;;25.90;62.70;;;;;;5036910;28;20784;-63
2023/08/21 00:05:45;;;;;;;6.53;4.28;;;25.90;62.70;;;;;;5050912;28;20030;-63
2023/08/21 00:08:10;;;;;;;6.70;4.53;;;25.90;63.60;;;;;;5041064;28;20043;-64
2023/08/21 00:10:40;;;;;;;9.05;4.50;;;25.90;63.00;;;;;;5045694;28;20041;-63
2023/08/21 00:13:06;;;;;;;10.52;4.97;;;25.80;63.50;;;;;;5048940;28;20112;-63
2023/08/21 00:15:32;;;;;;;10.60;3.83;;;25.80;63.20;;;;;;5050867;28;20107;-63
2023/08/21 00:17:58;;;;;;;7.93;4.43;;;25.80;63.20;;;;;;5048596;28;20079;-64
2023/08/21 00:20:24;;;;;;;8.32;4.55;;;25.80;63.40;;;;;;5043406;28;20063;-64
2023/08/21 00:22:49;;;;;;;6.80;4.47;;;25.70;63.50;;;;;;5044926;28;20121;-65
2023/08/21 00:25:15;;;;;;;8.45;4.68;;;25.70;63.60;;;;;;5045564;28;20487;-65
2023/08/21 00:27:41;;;;;;;7.93;4.15;;;25.70;63.90;;;;;;5046323;28;20037;-64
2023/08/21 00:30:07;;;;;;;7.70;4.78;;;25.60;63.70;;;;;;5048398;28;20028;-63
2023/08/21 00:32:33;;;;;;;8.18;4.47;;;25.60;63.90;;;;;;5043585;28;20128;-63
2023/08/21 00:34:58;;;;;;;7.32;4.55;;;25.60;64.10;;;;;;5044979;28;20103;-63
2023/08/21 00:37:24;;;;;;;9.07;4.88;;;25.60;64.20;;;;;;5053817;28;20064;-64
2023/08/21 00:39:50;;;;;;;7.38;4.57;;;25.50;64.30;;;;;;5050872;28;20037;-63
2023/08/21 00:42:15;;;;;;;6.20;3.90;;;25.50;64.30;;;;;;5051906;28;20076;-63
2023/08/21 00:44:41;;;;;;;6.55;4.45;;;25.50;64.30;;;;;;5053369;28;20037;-63
2023/08/21 00:47:07;;;;;;;6.78;4.45;;;25.50;64.50;;;;;;5047735;28;20029;-63
2023/08/21 00:49:33;;;;;;;9.07;4.93;;;25.50;64.60;;;;;;5052856;28;20033;-63
2023/08/21 00:52:00;;;;;;;5.47;4.38;;;25.50;64.60;;;;;;5048905;28;20530;-63
2023/08/21 00:54:25;;;;;;;9.20;4.60;;;25.40;64.60;;;;;;5045752;28;20377;-64
2023/08/21 00:56:52;;;;;;;6.38;4.22;;;25.40;64.60;;;;;;5047340;28;20035;-65
2023/08/21 00:59:19;;;;;;;6.28;4.22;;;25.40;64.70;;;;;;5048757;28;20086;-64
2023/08/21 01:01:45;;;;;;;8.65;4.50;;;25.40;64.60;;;;;;5045275;28;20451;-63
2023/08/21 01:04:11;;;;;;;8.30;4.18;;;25.30;64.50;;;;;;5045813;28;20099;-63
2023/08/21 01:06:37;;;;;;;9.15;4.68;;;25.30;64.60;;;;;;5052580;28;20372;-64
2023/08/21 01:09:21;;;;;;;13.95;4.75;;;25.30;64.90;;;;;;5045784;28;20080;-64
2023/08/21 01:12:24;;;;;;;7.05;4.45;;;25.30;66.00;;;;;;5043813;28;20041;-63
2023/08/21 01:14:55;;;;;;;7.95;4.35;;;25.30;65.90;;;;;;5051143;28;20342;-64
2023/08/21 01:17:23;;;;;;;8.68;4.50;;;25.20;65.10;;;;;;5049391;28;20040;-63
2023/08/21 01:19:50;;;;;;;7.40;4.82;;;25.20;65.00;;;;;;5043741;28;20029;-64
2023/08/21 01:22:16;;;;;;;7.45;4.93;;;25.20;65.20;;;;;;5044012;28;20033;-63
2023/08/21 01:24:41;;;;;;;8.98;4.65;;;25.20;65.30;;;;;;5047350;28;20029;-64
2023/08/21 01:27:08;;;;;;;9.75;4.68;;;25.10;65.30;;;;;;5051721;28;20047;-63
2023/08/21 01:29:34;;;;;;;8.65;4.40;;;25.10;65.40;;;;;;4982839;28;20032;-64
2023/08/21 01:32:19;;;;;;;7.20;4.75;;;25.10;65.40;;;;;;5047849;28;20041;-64
2023/08/21 01:34:46;;;;;;;9.25;4.25;;;25.10;66.30;;;;;;5045456;28;20513;-64
2023/08/21 01:37:13;;;;;;;7.22;4.32;;;25.10;65.40;;;;;;5049630;28;20032;-64
2023/08/21 01:39:38;;;;;;;7.78;4.72;;;25.00;65.30;;;;;;5050280;28;20111;-64
2023/08/21 01:42:04;;;;;;;6.43;4.05;;;25.10;65.50;;;;;;5049123;28;20162;-64
2023/08/21 01:44:30;;;;;;;9.90;4.63;;;25.10;65.50;;;;;;5039538;28;20021;-64
2023/08/21 01:46:55;;;;;;;7.82;4.40;;;25.00;66.20;;;;;;5052115;28;20037;-64
2023/08/21 01:49:21;;;;;;;8.55;4.70;;;25.00;65.60;;;;;;5046108;28;20025;-63
2023/08/21 01:51:47;;;;;;;9.48;4.68;;;25.00;65.70;;;;;;5050655;28;20045;-63
2023/08/21 01:54:12;;;;;;;7.65;4.47;;;24.90;65.80;;;;;;5045529;28;20370;-64
2023/08/21 01:56:38;;;;;;;6.65;4.53;;;25.00;65.90;;;;;;5043809;28;20741;-63
2023/08/21 01:59:07;;;;;;;7.18;4.90;;;24.90;66.00;;;;;;5046965;28;20044;-63
2023/08/21 02:01:33;;;;;;;7.93;4.30;;;24.90;66.30;;;;;;5051962;28;20183;-63
2023/08/21 02:03:59;;;;;;;6.50;4.38;;;24.90;66.00;;;;;;5048100;28;21224;-63
2023/08/21 02:06:25;;;;;;;7.05;4.40;;;24.80;66.00;;;;;;5046973;28;20025;-63
2023/08/21 02:08:50;;;;;;;5.18;4.20;;;24.80;66.20;;;;;;5047589;28;20127;-64
2023/08/21 02:11:16;;;;;;;8.00;4.47;;;24.80;66.20;;;;;;5047195;28;20083;-63
2023/08/21 02:13:41;;;;;;;8.35;4.40;;;24.80;66.30;;;;;;5046147;28;20091;-63
2023/08/21 02:16:07;;;;;;;7.55;4.50;;;24.70;66.30;;;;;;5049912;28;20029;-64
2023/08/21 02:18:33;;;;;;;7.28;4.47;;;24.70;66.50;;;;;;5049035;28;20032;-64
2023/08/21 02:21:01;;;;;;;8.02;4.68;;;24.70;66.50;;;;;;5051533;28;20040;-64
2023/08/21 02:23:27;;;;;;;7.45;5.28;;;24.70;66.70;;;;;;5042436;28;20108;-64
2023/08/21 02:25:53;;;;;;;10.57;5.03;;;24.70;66.60;;;;;;5046889;28;20563;-63
2023/08/21 02:28:19;;;;;;;8.45;5.10;;;24.60;66.70;;;;;;4936561;28;20358;-64
2023/08/21 02:30:45;;;;;;;7.35;4.68;;;24.70;66.90;;;;;;5048608;28;20095;-63
2023/08/21 02:33:11;;;;;;;6.75;4.32;;;24.60;66.90;;;;;;5045206;28;20044;-63
2023/08/21 02:35:37;;;;;;;8.35;4.63;;;24.60;66.90;;;;;;5047606;28;20488;-62
2023/08/21 02:38:03;;;;;;;8.20;4.30;;;24.60;66.90;;;;;;5049620;28;20037;-63
2023/08/21 02:40:28;;;;;;;8.35;4.47;;;24.60;66.90;;;;;;5042172;28;20065;-64
2023/08/21 02:42:54;;;;;;;6.60;4.95;;;24.50;67.00;;;;;;5042748;28;20103;-64
2023/08/21 02:45:20;;;;;;;6.43;4.70;;;24.50;67.10;;;;;;5047919;28;20025;-64
2023/08/21 02:47:45;;;;;;;7.97;4.68;;;24.50;67.10;;;;;;5045654;28;20090;-65
2023/08/21 02:50:11;;;;;;;7.68;4.70;;;24.50;67.20;;;;;;5048779;28;20075;-64
2023/08/21 02:52:37;;;;;;;6.35;4.90;;;24.50;67.20;;;;;;5051739;28;20364;-64
2023/08/21 02:55:04;;;;;;;9.18;4.60;;;24.50;67.20;;;;;;5045563;28;20373;-64
2023/08/21 02:57:30;;;;;;;9.32;5.18;;;24.40;67.20;;;;;;5042873;28;20055;-63
2023/08/21 02:59:56;;;;;;;8.32;4.30;;;24.40;67.10;;;;;;5049716;28;20025;-63
2023/08/21 03:02:22;;;;;;;7.60;5.15;;;24.40;67.20;;;;;;5045499;28;20032;-63
2023/08/21 03:04:49;;;;;;;8.90;5.03;;;24.40;67.40;;;;;;5047738;28;20083;-64
2023/08/21 03:07:15;;;;;;;7.97;4.80;;;24.30;67.60;;;;;;5053929;28;20372;-64
2023/08/21 03:09:41;;;;;;;7.78;5.15;;;24.30;67.50;;;;;;5049855;28;20063;-64
2023/08/21 03:12:08;;;;;;;6.45;4.57;;;24.30;67.40;;;;;;5043201;28;20529;-64
2023/08/21 03:14:35;;;;;;;8.05;5.05;;;24.30;67.50;;;;;;5045099;28;20395;-63
2023/08/21 03:17:00;;;;;;;5.97;4.53;;;24.30;67.70;;;;;;5044848;28;20032;-63
2023/08/21 03:19:26;;;;;;;6.43;4.53;;;24.30;67.70;;;;;;5046164;28;20058;-63
2023/08/21 03:21:52;;;;;;;12.50;5.00;;;24.30;67.80;;;;;;5049679;28;20468;-63
2023/08/21 03:24:18;;;;;;;8.23;5.03;;;24.20;67.80;;;;;;5048510;28;20036;-62
2023/08/21 03:26:44;;;;;;;9.73;5.22;;;24.20;68.00;;;;;;5046991;28;20055;-63
2023/08/21 03:29:10;;;;;;;13.73;5.18;;;24.20;68.10;;;;;;4964443;28;20029;-64
2023/08/21 03:31:35;;;;;;;7.68;5.25;;;24.20;68.90;;;;;;5045872;28;20183;-64
2023/08/21 03:34:02;;;;;;;6.95;5.10;;;24.10;68.20;;;;;;5048015;28;20467;-64
2023/08/21 03:36:31;;;;;;;9.20;5.15;;;24.10;68.30;;;;;;5049467;28;20484;-64
2023/08/21 03:39:00;;;;;;;8.80;5.00;;;24.10;68.30;;;;;;5047043;28;20039;-64
2023/08/21 03:41:26;;;;;;;9.38;5.35;;;24.10;68.70;;;;;;5048834;28;20046;-64
2023/08/21 03:43:52;;;;;;;10.98;5.10;;;24.00;68.50;;;;;;5045674;28;20043;-64
2023/08/21 03:46:18;;;;;;;10.68;5.30;;;24.00;68.60;;;;;;5045360;28;20135;-62
2023/08/21 03:48:43;;;;;;;11.38;4.95;;;24.00;68.60;;;;;;5048229;28;20052;-63
2023/08/21 03:51:09;;;;;;;9.52;5.05;;;24.00;68.60;;;;;;5048883;28;20451;-64
2023/08/21 03:53:35;;;;;;;9.70;5.53;;;24.00;68.60;;;;;;5049657;28;20021;-63
2023/08/21 03:56:01;;;;;;;7.07;4.78;;;24.00;68.70;;;;;;5048463;28;20029;-64
2023/08/21 03:58:27;;;;;;;6.75;4.82;;;24.00;68.80;;;;;;5049163;28;20028;-63
2023/08/21 04:00:53;;;;;;;8.45;5.32;;;24.00;68.80;;;;;;5045550;28;20036;-63
2023/08/21 04:03:19;;;;;;;7.03;5.22;;;24.00;68.80;;;;;;5040161;28;20031;-63
2023/08/21 04:05:44;;;;;;;10.10;4.97;;;23.90;68.80;;;;;;5049008;28;20025;-63
2023/08/21 04:08:10;;;;;;;6.82;4.95;;;23.90;68.90;;;;;;5053464;28;20103;-64
2023/08/21 04:10:36;;;;;;;9.75;5.60;;;23.90;69.00;;;;;;5054838;28;20056;-62
2023/08/21 04:13:02;;;;;;;10.20;5.30;;;23.90;69.10;;;;;;5048007;28;20030;-63
2023/08/21 04:15:27;;;;;;;9.10;4.97;;;23.90;69.10;;;;;;5050811;28;20147;-63
2023/08/21 04:17:53;;;;;;;6.43;4.72;;;23.80;69.00;;;;;;5045420;28;20503;-63
2023/08/21 04:20:22;;;;;;;10.52;4.93;;;23.90;69.20;;;;;;5054160;28;20460;-65
2023/08/21 04:22:48;;;;;;;4.78;4.32;;;23.80;69.40;;;;;;5049432;28;20025;-63
2023/08/21 04:25:14;;;;;;;8.32;5.20;;;23.80;69.20;;;;;;5056630;28;20025;-63
2023/08/21 04:27:39;;;;;;;11.75;4.72;;;23.80;69.30;;;;;;4979863;28;20715;-63
2023/08/21 04:30:06;;;;;;;8.65;5.20;;;23.70;69.30;;;;;;5047114;28;20387;-64
2023/08/21 04:32:31;;;;;;;6.43;5.00;;;23.70;69.40;;;;;;5045579;28;20041;-64
2023/08/21 04:34:57;;;;;;;7.10;4.88;;;23.70;69.50;;;;;;5048211;28;20023;-64
2023/08/21 04:37:23;;;;;;;10.98;4.97;;;23.70;69.50;;;;;;5054243;28;20123;-62
2023/08/21 04:39:55;;;;;;;8.43;4.85;;;23.70;70.40;;;;;;5047093;28;20110;-64
2023/08/21 04:42:21;;;;;;;5.93;4.40;;;23.70;70.20;;;;;;5049595;28;20646;-62
2023/08/21 04:44:47;;;;;;;8.13;5.40;;;23.70;69.70;;;;;;5046652;28;20017;-64
2023/08/21 04:47:19;;;;;;;6.55;5.13;;;23.70;69.90;;;;;;5047505;28;20025;-65
2023/08/21 04:49:45;;;;;;;5.13;4.15;;;23.70;70.60;;;;;;5047885;28;20494;-62
2023/08/21 04:52:10;;;;;;;7.38;5.50;;;23.70;70.00;;;;;;5047789;28;20068;-63
2023/08/21 04:54:36;;;;;;;9.00;4.97;;;23.70;70.00;;;;;;5053925;28;20059;-63
2023/08/21 04:57:03;;;;;;;6.35;5.00;;;23.70;70.00;;;;;;5050697;28;20029;-62
2023/08/21 04:59:28;;;;;;;6.18;5.32;;;23.70;70.10;;;;;;5047994;28;20021;-63
2023/08/21 05:01:54;;;;;;;10.30;6.13;;;23.70;70.20;;;;;;5052960;28;20040;-63
2023/08/21 05:04:20;;;;;;;7.75;4.93;;;23.70;70.20;;;;;;5052490;28;20033;-63
2023/08/21 05:06:45;;;;;;;10.88;5.40;;;23.70;70.20;;;;;;5048362;28;20033;-62
2023/08/21 05:09:11;;;;;;;14.02;6.85;;;23.70;70.20;;;;;;5052135;28;20087;-63
2023/08/21 05:11:36;;;;;;;10.98;5.20;;;23.70;70.20;;;;;;5051990;28;20040;-63
2023/08/21 05:14:02;;;;;;;7.35;4.93;;;23.80;70.30;;;;;;5044047;28;20074;-62
2023/08/21 05:16:28;;;;;;;8.50;5.35;;;23.80;70.30;;;;;;5047506;28;20027;-62
2023/08/21 05:18:54;;;;;;;11.60;5.38;;;23.80;70.40;;;;;;5052074;28;20020;-64
2023/08/21 05:21:19;;;;;;;6.65;5.45;;;23.80;70.30;;;;;;5052291;28;20027;-64
2023/08/21 05:23:45;;;;;;;7.43;4.93;;;23.90;70.50;;;;;;5051039;28;20032;-64
2023/08/21 05:26:11;;;;;;;8.15;5.28;;;23.90;70.40;;;;;;5048151;28;20487;-64
2023/08/21 05:28:36;;;;;;;13.07;5.57;;;24.00;70.40;;;;;;4960465;28;20040;-63
2023/08/21 05:31:02;;;;;;;8.90;5.10;;;24.00;70.50;;;;;;5049401;28;20107;-63
2023/08/21 05:33:28;;;;;;;7.05;4.97;;;24.10;70.40;;;;;;5046111;28;20053;-64
2023/08/21 05:35:55;;;;;;;9.68;5.95;;;24.20;70.30;;;;;;5048055;28;20032;-63
2023/08/21 05:38:21;;;;;;;7.15;4.85;;;24.30;70.40;;;;;;5050741;28;20028;-63
2023/08/21 05:40:48;;;;;;;6.32;4.78;;;24.30;70.10;;;;;;5050889;28;20516;-63
2023/08/21 05:43:14;;;;;;;11.07;5.13;;;24.50;70.30;;;;;;5048420;28;20032;-63
2023/08/21 05:45:40;;;;;;;8.68;5.03;;;24.50;70.10;;;;;;5043170;28;20052;-64
2023/08/21 05:48:05;;;;;;;7.93;4.93;;;24.60;69.80;;;;;;5046208;28;20025;-64
2023/08/21 05:50:31;;;;;;;8.82;5.97;;;24.70;69.70;;;;;;5053062;28;20028;-62
2023/08/21 05:52:57;;;;;;;7.05;4.80;;;24.80;69.60;;;;;;5052156;28;20056;-63
2023/08/21 05:55:23;;;;;;;7.97;4.75;;;24.90;69.30;;;;;;5049961;28;20028;-63
2023/08/21 05:57:49;;;;;;;6.20;4.68;;;25.00;69.10;;;;;;5047197;28;20029;-63
2023/08/21 06:00:15;;;;;;;6.28;5.00;;;25.10;68.90;;;;;;5045349;28;20029;-63
2023/08/21 06:02:44;;;;;;;10.65;4.93;;;25.20;68.80;;;;;;5048963;28;20476;-64
2023/08/21 06:05:10;;;;;;;10.80;5.35;;;25.30;68.60;;;;;;5045377;28;20048;-64
2023/08/21 06:07:35;;;;;;;9.98;4.85;;;25.40;68.50;;;;;;5044934;28;20456;-63
2023/08/21 06:10:01;;;;;;;8.73;5.05;;;25.50;68.30;;;;;;5051831;28;20040;-63
2023/08/21 06:12:26;;;;;;;11.60;4.55;;;25.60;68.10;;;;;;5042184;28;20443;-64
2023/08/21 06:14:52;;;;;;;9.27;5.05;;;25.70;67.80;;;;;;5050232;28;20443;-64
2023/08/21 06:17:18;;;;;;;12.10;5.45;;;25.80;67.60;;;;;;5045667;28;20082;-63
2023/08/21 06:19:44;;;;;;;7.95;4.93;;;25.90;67.50;;;;;;5046467;28;20025;-63
2023/08/21 06:22:09;;;;;;;9.20;5.32;;;26.00;67.30;;;;;;5048347;28;20036;-64
2023/08/21 06:24:35;;;;;;;9.82;5.50;;;26.10;67.10;;;;;;5041271;28;20121;-63
2023/08/21 06:27:01;;;;;;;9.00;4.50;;;26.20;67.00;;;;;;5049247;28;20127;-63
2023/08/21 06:29:26;;;;;;;6.78;4.50;;;26.30;66.80;;;;;;5047911;28;20024;-64
2023/08/21 06:31:52;;;;;;;8.40;5.25;;;26.40;66.70;;;;;;5044455;28;20470;-64
2023/08/21 06:34:18;;;;;;;10.02;5.70;;;26.50;66.40;;;;;;5051749;28;20021;-64
2023/08/21 06:36:44;;;;;;;10.60;5.45;;;26.60;66.30;;;;;;5050262;28;20120;-65
2023/08/21 06:39:09;;;;;;;9.23;5.20;;;26.70;66.20;;;;;;5047088;28;20060;-64
2023/08/21 06:41:35;;;;;;;16.02;5.28;;;26.80;66.00;;;;;;5047702;28;20114;-64
2023/08/21 06:44:00;;;;;;;7.65;5.13;;;26.90;65.70;;;;;;5042034;28;20029;-64
2023/08/21 06:46:26;;;;;;;11.48;5.22;;;27.00;65.50;;;;;;5041109;28;20044;-64
2023/08/21 06:48:52;;;;;;;9.85;5.45;;;27.10;65.30;;;;;;5045878;28;20025;-63
2023/08/21 06:51:18;;;;;;;9.68;5.10;;;27.20;65.10;;;;;;5052836;28;20040;-64
2023/08/21 06:53:43;;;;;;;13.52;5.30;;;27.30;65.00;;;;;;5043718;28;20021;-64
2023/08/21 06:56:09;;;;;;;11.50;4.97;;;27.50;65.00;;;;;;5045936;28;20695;-63
2023/08/21 06:58:35;;;;;;;10.93;5.20;;;27.60;64.80;;;;;;5049406;28;20077;-63
2023/08/21 07:01:01;;;;;;;8.05;4.90;;;27.70;64.60;;;;;;5041150;28;20036;-64
2023/08/21 07:03:26;;;;;;;14.68;4.97;;;27.80;64.40;;;;;;5038739;28;20104;-64
2023/08/21 07:05:56;;;;;;;8.07;4.38;;;28.00;64.40;;;;;;5048059;28;20559;-63
2023/08/21 07:08:23;;;;;;;6.47;4.25;;;28.10;64.30;;;;;;5047375;28;20025;-63
2023/08/21 07:10:49;;;;;;;11.02;5.20;;;28.30;64.20;;;;;;5048430;28;20052;-64
2023/08/21 07:13:14;;;;;;;9.43;4.53;;;28.40;63.60;;;;;;5042906;28;20017;-64
2023/08/21 07:15:40;;;;;;;8.23;4.40;;;28.50;63.20;;;;;;5045659;28;20063;-64
2023/08/21 07:18:07;;;;;;;10.18;4.70;;;28.70;63.10;;;;;;5045228;28;20086;-64
2023/08/21 07:20:33;;;;;;;12.25;4.88;;;28.80;62.50;;;;;;5045686;28;20025;-63
2023/08/21 07:22:59;;;;;;;8.55;4.97;;;29.00;62.20;;;;;;5050992;28;20025;-64
2023/08/21 07:25:25;;;;;;;7.80;4.60;;;29.10;61.90;;;;;;5039432;28;20033;-64
2023/08/21 07:27:53;;;;;;;7.72;4.68;;;29.20;61.50;;;;;;4982345;28;20055;-64
2023/08/21 07:30:19;;;;;;;10.68;4.53;;;29.40;61.10;;;;;;5043756;28;20032;-63
2023/08/21 07:32:46;;;;;;;12.32;4.72;;;29.50;60.90;;;;;;5046411;28;20033;-63
2023/08/21 07:35:11;;;;;;;8.40;4.45;;;29.70;60.60;;;;;;5048968;28;20036;-63
2023/08/21 07:37:37;;;;;;;8.07;4.57;;;29.70;60.10;;;;;;5041258;28;20033;-64
2023/08/21 07:40:04;;;;;;;13.65;4.60;;;29.90;59.80;;;;;;5046608;28;20056;-64
2023/08/21 07:42:30;;;;;;;9.05;3.97;;;30.00;59.50;;;;;;5047546;28;20059;-64
2023/08/21 07:44:56;;;;;;;11.82;4.68;;;30.10;59.30;;;;;;5050298;28;20052;-64
2023/08/21 07:47:21;;;;;;;9.63;4.65;;;30.30;58.90;;;;;;5047706;28;20425;-65
2023/08/21 07:49:47;;;;;;;8.38;4.30;;;30.30;58.60;;;;;;5051105;28;20033;-64
2023/08/21 07:52:13;;;;;;;8.60;4.55;;;30.40;58.10;;;;;;5049919;28;20165;-64
2023/08/21 07:54:38;;;;;;;9.00;4.20;;;30.60;57.80;;;;;;5054831;28;20063;-64
2023/08/21 07:57:04;;;;;;;8.13;4.40;;;30.60;57.40;;;;;;5051165;28;20468;-64
2023/08/21 07:59:30;;;;;;;9.57;4.65;;;30.70;57.30;;;;;;5050942;28;20698;-64
2023/08/21 08:01:56;;;;;;;6.70;4.40;;;30.90;57.30;;;;;;5046922;28;20618;-64
2023/08/21 08:04:21;;;;;;;9.30;4.50;;;30.90;57.00;;;;;;5047586;28;20509;-64
2023/08/21 08:06:47;;;;;;;9.43;4.50;;;31.10;56.80;;;;;;5047508;28;20053;-64
2023/08/21 08:09:13;;;;;;;6.22;4.10;;;31.10;56.80;;;;;;5049954;28;20140;-65
2023/08/21 08:11:39;;;;;;;11.40;4.75;;;31.30;56.50;;;;;;5050762;28;20048;-65
2023/08/21 08:14:04;;;;;;;7.28;4.15;;;31.30;56.20;;;;;;5048103;28;20059;-64
2023/08/21 08:16:30;;;;;;;8.93;3.95;;;31.50;56.20;;;;;;5051515;28;20048;-64
2023/08/21 08:18:56;;;;;;;8.43;4.13;;;31.50;55.80;;;;;;5049939;28;20035;-64
2023/08/21 08:21:21;;;;;;;5.15;3.90;;;31.60;55.40;;;;;;5046009;28;20036;-64
2023/08/21 08:23:47;;;;;;;9.35;4.50;;;31.70;55.80;;;;;;5047595;28;20371;-65
2023/08/21 08:26:13;;;;;;;6.88;3.97;;;31.80;55.10;;;;;;5052230;28;20029;-64
2023/08/21 08:28:38;;;;;;;11.15;3.70;;;31.90;55.10;;;;;;5048654;28;20037;-65
2023/08/21 08:31:04;;;;;;;7.75;3.80;;;32.00;55.10;;;;;;5044009;28;20044;-65
2023/08/21 08:33:30;;;;;;;7.40;4.20;;;32.10;55.00;;;;;;5042388;28;20688;-64
2023/08/21 08:35:55;;;;;;;6.20;4.07;;;32.10;54.70;;;;;;5045082;28;20024;-65
2023/08/21 08:38:21;;;;;;;11.35;4.15;;;32.30;54.20;;;;;;5050070;28;20128;-64
2023/08/21 08:40:47;;;;;;;9.60;4.15;;;32.30;53.90;;;;;;5047671;28;20476;-64
2023/08/21 08:43:14;;;;;;;11.57;4.45;;;32.40;54.40;;;;;;5049626;28;20025;-64
2023/08/21 08:45:41;;;;;;;5.78;4.10;;;32.50;53.40;;;;;;5047264;28;20410;-65
2023/08/21 08:48:07;;;;;;;8.07;4.10;;;32.50;53.40;;;;;;5051661;28;20024;-65
2023/08/21 08:50:34;;;;;;;4.88;3.45;;;32.70;53.50;;;;;;5050658;28;20032;-65
2023/08/21 08:53:00;;;;;;;4.57;3.58;;;32.70;52.80;;;;;;5045408;28;20553;-64
2023/08/21 08:55:27;;;;;;;8.45;3.80;;;32.80;52.40;;;;;;5050357;28;20381;-65
2023/08/21 08:57:53;;;;;;;13.15;4.22;;;32.80;52.20;;;;;;5048721;28;20033;-64
2023/08/21 09:00:20;;;;;;;17.45;4.07;;;32.90;51.90;;;;;;5048580;28;20033;-65
2023/08/21 09:02:46;;;;;;;6.18;3.85;;;32.90;52.30;;;;;;5038616;28;20389;-64
2023/08/21 09:05:12;;;;;;;7.68;3.95;;;33.00;51.90;;;;;;5046408;28;20403;-65
2023/08/21 09:07:39;;;;;;;6.07;3.78;;;33.00;51.60;;;;;;5036120;28;20147;-65
2023/08/21 09:10:12;;;;;;;7.85;4.20;;;33.00;51.50;;;;;;5041072;28;20072;-64
2023/08/21 09:12:38;;;;;;;;;;;32.90;51.40;;;;;;5045769;28;20848;-65
2023/08/21 09:15:08;;;;;;;6.75;3.50;;;32.90;51.80;;;;;;5050625;28;19912;-65
2023/08/21 09:17:33;;;;;;;5.55;3.95;;;33.00;51.40;;;;;;5039326;28;20025;-65
2023/08/21 09:20:07;;;;;;;8.13;3.40;;;33.00;50.90;;;;;;5049221;28;20033;-65
2023/08/21 09:22:33;;;;;;;4.47;3.50;;;32.90;50.00;;;;;;5045708;28;20129;-65
2023/08/21 09:25:09;;;;;;;12.07;3.53;;;32.80;50.10;;;;;;5047868;28;20119;-64
2023/08/21 09:27:38;;;;;;;9.27;3.92;;;32.80;49.50;;;;;;4982658;28;20674;-64
2023/08/21 09:30:14;;;;;;;5.22;3.00;;;32.80;50.20;;;;;;5048168;28;20060;-64
2023/08/21 09:33:00;;;;;;;6.20;3.05;;;32.90;49.80;;;;;;5060588;28;20052;-63
2023/08/21 09:35:26;;;;;;;7.43;3.50;;;33.00;49.40;;;;;;5037416;28;20021;-64
2023/08/21 09:37:53;;;;;;;4.63;3.42;;;33.10;49.90;;;;;;5044932;28;20021;-63
2023/08/21 09:40:19;;;;;;;8.77;3.30;;;33.30;49.60;;;;;;5043609;28;20033;-64
2023/08/21 09:42:45;;;;;;;5.45;3.22;;;33.40;49.40;;;;;;5039427;28;20559;-64
2023/08/21 09:45:11;;;;;;;5.55;3.33;;;33.40;49.60;;;;;;5040434;28;20025;-64
2023/08/21 09:47:39;;;;;;;7.20;3.60;;;33.60;49.40;;;;;;5051311;28;20060;-65
2023/08/21 09:50:05;;;;;;;6.13;3.60;;;33.60;48.80;;;;;;5047628;28;20501;-63
2023/08/21 09:52:31;;;;;;;5.72;3.58;;;33.60;48.20;;;;;;5047038;28;20024;-63
2023/08/21 09:54:57;;;;;;;5.07;3.25;;;33.60;48.30;;;;;;5049035;28;20078;-65
2023/08/21 09:57:24;;;;;;;8.45;3.33;;;33.70;48.40;;;;;;5046820;28;20492;-64
2023/08/21 09:59:56;;;;;;;7.93;4.60;;;33.70;47.50;;;;;;5039732;28;20083;-64
2023/08/21 10:02:23;;;;;;;9.23;3.63;;;33.70;47.60;;;;;;5050449;28;20112;-64
2023/08/21 10:04:49;;;;;;;7.63;3.40;;;33.70;48.00;;;;;;5046828;28;20033;-64
2023/08/21 10:07:20;;;;;;;7.38;3.65;;;33.70;48.00;;;;;;5047008;28;20067;-64
2023/08/21 10:09:46;;;;;;;7.32;3.28;;;33.80;48.00;;;;;;5045801;28;20086;-64
2023/08/21 10:12:16;;;;;;;5.25;3.47;;;33.80;47.70;;;;;;5052981;28;20047;-64
2023/08/21 10:14:42;;;;;;;6.45;2.85;;;33.90;47.20;;;;;;5050651;28;20029;-64
2023/08/21 10:17:08;;;;;;;5.35;3.33;;;34.00;47.10;;;;;;5047779;28;20021;-63
2023/08/21 10:19:35;;;;;;;6.82;3.63;;;34.10;46.70;;;;;;5044671;28;20437;-64
2023/08/21 10:22:03;;;;;;;4.93;3.10;;;34.20;46.60;;;;;;5046544;28;20025;-64
2023/08/21 10:24:37;;;;;;;6.68;3.42;;;34.30;47.00;;;;;;5046027;28;20025;-64
2023/08/21 10:27:03;;;;;;;5.57;3.22;;;34.40;46.10;;;;;;5044111;28;20131;-63
2023/08/21 10:29:31;;;;;;;5.05;3.22;;;34.50;46.80;;;;;;4945597;28;20024;-65
2023/08/21 10:32:02;;;;;;;10.23;3.50;;;34.60;46.40;;;;;;5046177;28;20045;-65
2023/08/21 10:34:37;;;;;;;7.68;3.58;;;34.60;45.60;;;;;;5050620;28;20044;-66
2023/08/21 10:37:11;;;;;;;5.68;3.50;;;34.60;45.10;;;;;;5047082;28;20437;-65
2023/08/21 10:39:39;;;;;;;5.68;3.45;;;34.60;44.30;;;;;;5047250;28;20116;-65
2023/08/21 10:42:15;;;;;;;10.55;3.53;;;34.50;45.70;;;;;;5046079;28;20017;-65
2023/08/21 10:44:48;;;;;;;6.40;3.35;;;34.50;45.90;;;;;;5045752;28;20040;-65
2023/08/21 10:47:16;;;;;;;7.30;3.75;;;34.50;46.10;;;;;;5044874;28;20456;-65
2023/08/21 10:49:42;;;;;;;5.13;3.42;;;34.40;46.20;;;;;;5047655;28;20044;-65
2023/08/21 10:52:09;;;;;;;4.45;3.22;;;34.40;46.00;;;;;;5049978;28;20060;-65
2023/08/21 10:55:04;;;;;;;5.95;3.80;;;34.30;45.80;;;;;;5044728;28;20029;-64
2023/08/21 10:57:31;;;;;;;6.28;3.17;;;34.20;45.30;;;;;;5034475;28;20032;-64
2023/08/21 11:00:03;;;;;;;5.25;3.22;;;34.10;45.30;;;;;;5041523;28;20032;-64
2023/08/21 11:02:30;;;;;;;6.35;3.30;;;34.10;45.70;;;;;;5041812;28;20032;-65
2023/08/21 11:04:57;;;;;;;6.32;3.20;;;34.00;45.40;;;;;;5046038;28;20032;-65
2023/08/21 11:07:22;;;;;;;6.88;3.70;;;34.00;45.30;;;;;;5045773;28;20032;-64
2023/08/21 11:09:49;;;;;;;5.47;3.30;;;34.00;46.60;;;;;;5050860;28;20053;-65
2023/08/21 11:12:17;;;;;;;5.32;3.25;;;34.10;46.80;;;;;;5048452;28;20060;-65
2023/08/21 11:14:43;;;;;;;4.20;2.90;;;34.30;46.30;;;;;;5051503;28;20468;-64
2023/08/21 11:17:09;;;;;;;5.13;3.60;;;34.40;45.70;;;;;;5044860;28;20036;-65
2023/08/21 11:19:35;;;;;;;4.72;3.20;;;34.50;46.00;;;;;;5045806;28;20032;-65
2023/08/21 11:22:06;;;;;;;7.13;3.05;;;34.70;45.90;;;;;;5046614;28;20028;-64
2023/08/21 11:24:37;;;;;;;4.80;3.28;;;34.90;45.30;;;;;;5039136;28;20063;-64
2023/08/21 11:27:04;;;;;;;11.95;3.20;;;35.10;43.90;;;;;;5048028;28;20115;-64
2023/08/21 11:29:51;;;;;;;5.07;2.75;;;35.30;43.80;;;;;;5044937;28;20021;-64
2023/08/21 11:32:19;;;;;;;6.32;3.25;;;35.40;43.40;;;;;;5042838;28;20035;-67
2023/08/21 11:34:55;;;;;;;5.38;2.85;;;35.60;43.20;;;;;;5039531;28;20368;-63
2023/08/21 11:37:26;;;;;;;4.05;2.72;;;35.70;42.40;;;;;;5046039;28;20021;-65
2023/08/21 11:39:57;;;;;;;7.45;2.85;;;35.90;43.30;;;;;;5044900;28;20407;-64
2023/08/21 11:42:30;;;;;;;3.58;2.65;;;36.00;43.40;;;;;;5048979;28;20033;-64
2023/08/21 11:44:56;;;;;;;;;;;36.10;43.60;;;;;;5047735;28;20625;-65
2023/08/21 11:47:23;;;;;;;7.47;3.03;;;36.20;44.20;;;;;;5047168;28;20047;-64
2023/08/21 11:49:50;;;;;;;5.70;2.97;;;36.30;43.00;;;;;;5046843;28;20021;-65
2023/08/21 11:52:26;;;;;;;7.15;3.00;;;36.30;42.40;;;;;;5052213;28;20033;-64
2023/08/21 11:54:53;;;;;;;5.25;3.08;;;36.20;42.30;;;;;;5046818;28;20032;-65
2023/08/21 11:57:20;;;;;;;8.15;3.00;;;36.00;42.40;;;;;;5038013;28;20029;-64
2023/08/21 11:59:54;;;;;;;6.88;2.75;;;35.90;42.10;;;;;;5046069;28;20025;-64
2023/08/21 12:02:29;;;;;;;12.80;3.55;;;35.80;42.30;;;;;;5046854;28;20024;-65
2023/08/21 12:05:02;;;;;;;7.28;3.35;;;35.80;41.80;;;;;;5043627;28;20021;-63
2023/08/21 12:07:27;;;;;;;5.93;3.15;;;35.70;42.60;;;;;;5049258;28;20025;-64
2023/08/21 12:09:53;;;;;;;6.70;2.83;;;35.60;42.50;;;;;;5049062;28;20048;-64
2023/08/21 12:12:19;;;;;;;6.30;3.20;;;35.50;42.60;;;;;;5045343;28;20484;-64
2023/08/21 12:14:46;;;;;;;7.40;3.70;;;35.30;42.70;;;;;;5049269;28;20095;-65
2023/08/21 12:17:11;;;;;;;6.35;3.58;;;35.20;43.40;;;;;;5048781;28;20048;-64
2023/08/21 12:19:37;;;;;;;5.15;2.95;;;35.20;44.30;;;;;;5043389;28;20476;-64
2023/08/21 12:22:04;;;;;;;7.50;3.40;;;35.30;44.70;;;;;;5047294;28;20029;-64
2023/08/21 12:24:29;;;;;;;4.70;3.33;;;35.50;43.90;;;;;;5042387;28;20419;-64
2023/08/21 12:26:55;;;;;;;6.80;2.90;;;35.60;43.30;;;;;;5047839;28;20032;-63
2023/08/21 12:29:21;;;;;;;4.47;2.90;;;35.80;43.20;;;;;;5045732;28;20043;-64
2023/08/21 12:31:48;;;;;;;4.93;2.97;;;35.80;43.00;;;;;;5044655;28;20041;-63
2023/08/21 12:34:13;;;;;;;3.40;2.60;;;35.80;41.80;;;;;;5046617;28;20021;-65
2023/08/21 12:36:39;;;;;;;7.40;3.58;;;35.80;41.90;;;;;;5047436;28;20040;-65
2023/08/21 12:39:06;;;;;;;6.25;3.05;;;35.80;41.50;;;;;;5048168;28;20025;-64
2023/08/21 12:41:35;;;;;;;3.97;3.10;;;35.80;41.50;;;;;;5050177;28;20032;-64
2023/08/21 12:44:02;;;;;;;9.10;3.42;;;35.90;41.00;;;;;;5044109;28;20025;-64